sensor_id;sensor_type;location;lat;lon;timestamp;temperature;humidity
32769;DHT22;23049;54.304;8.826;2022-07-24T00:00:59;13.40;99.90
32769;DHT22;23049;54.304;8.826;2022-07-24T00:03:24;13.50;99.90
32769;DHT22;23049;54.304;8.826;2022-07-24T00:05:52;13.50;99.90
32769;DHT22;23049;54.304;8.826;2022-07-24T00:08:18;13.50;99.90
32769;DHT22;23049;54.304;8.826;2022-07-24T00:10:44;13.40;99.90
32769;DHT22;23049;54.304;8.826;2022-07-24T00:13:09;13.30;99.90
32769;DHT22;23049;54.304;8.826;2022-07-24T00:15:35;13.30;99.90
32769;DHT22;23049;54.304;8.826;2022-07-24T00:18:01;13.30;99.90
32769;DHT22;23049;54.304;8.826;2022-07-24T00:22:39;13.40;99.90
32769;DHT22;23049;54.304;8.826;2022-07-24T00:25:05;13.30;99.90
32769;DHT22;23049;54.304;8.826;2022-07-24T00:27:31;13.30;99.90
32769;DHT22;23049;54.304;8.826;2022-07-24T00:29:56;13.30;99.90
32769;DHT22;23049;54.304;8.826;2022-07-24T00:32:22;13.30;99.90
32769;DHT22;23049;54.304;8.826;2022-07-24T00:34:48;13.20;99.90
32769;DHT22;23049;54.304;8.826;2022-07-24T00:37:13;13.20;99.90
32769;DHT22;23049;54.304;8.826;2022-07-24T00:39:39;13.00;99.90
32769;DHT22;23049;54.304;8.826;2022-07-24T00:42:05;13.00;99.90
32769;DHT22;23049;54.304;8.826;2022-07-24T00:44:30;13.10;99.90
32769;DHT22;23049;54.304;8.826;2022-07-24T00:46:56;13.10;99.90
32769;DHT22;23049;54.304;8.826;2022-07-24T00:49:22;13.10;99.90
32769;DHT22;23049;54.304;8.826;2022-07-24T00:51:50;13.10;99.90
32769;DHT22;23049;54.304;8.826;2022-07-24T00:54:18;13.10;99.90
32769;DHT22;23049;54.304;8.826;2022-07-24T00:56:47;13.10;99.90
32769;DHT22;23049;54.304;8.826;2022-07-24T00:59:13;13.00;99.90
32769;DHT22;23049;54.304;8.826;2022-07-24T01:01:39;13.00;99.90
32769;DHT22;23049;54.304;8.826;2022-07-24T01:04:05;13.10;99.90
32769;DHT22;23049;54.304;8.826;2022-07-24T01:06:31;13.20;99.90
32769;DHT22;23049;54.304;8.826;2022-07-24T01:08:57;13.20;99.90
32769;DHT22;23049;54.304;8.826;2022-07-24T01:11:23;13.20;99.90
32769;DHT22;23049;54.304;8.826;2022-07-24T01:13:50;13.20;99.90
32769;DHT22;23049;54.304;8.826;2022-07-24T01:16:16;13.20;99.90
32769;DHT22;23049;54.304;8.826;2022-07-24T01:18:42;13.10;99.90
32769;DHT22;23049;54.304;8.826;2022-07-24T01:21:07;13.10;99.90
32769;DHT22;23049;54.304;8.826;2022-07-24T01:23:34;13.10;99.90
32769;DHT22;23049;54.304;8.826;2022-07-24T01:26:00;13.10;99.90
32769;DHT22;23049;54.304;8.826;2022-07-24T01:28:27;13.10;99.90
32769;DHT22;23049;54.304;8.826;2022-07-24T01:30:53;13.10;99.90
32769;DHT22;23049;54.304;8.826;2022-07-24T01:33:18;13.10;99.90
32769;DHT22;23049;54.304;8.826;2022-07-24T01:35:44;13.10;99.90
32769;DHT22;23049;54.304;8.826;2022-07-24T01:38:11;13.10;99.90
32769;DHT22;23049;54.304;8.826;2022-07-24T01:40:38;13.10;99.90
32769;DHT22;23049;54.304;8.826;2022-07-24T01:43:04;13.20;99.90
32769;DHT22;23049;54.304;8.826;2022-07-24T01:45:30;13.20;99.90
32769;DHT22;23049;54.304;8.826;2022-07-24T01:47:56;13.20;99.90
32769;DHT22;23049;54.304;8.826;2022-07-24T01:50:22;13.20;99.90
32769;DHT22;23049;54.304;8.826;2022-07-24T01:52:47;13.20;99.90
32769;DHT22;23049;54.304;8.826;2022-07-24T01:55:13;13.20;99.90
32769;DHT22;23049;54.304;8.826;2022-07-24T01:57:40;13.20;99.90
32769;DHT22;23049;54.304;8.826;2022-07-24T02:00:07;13.20;99.90
32769;DHT22;23049;54.304;8.826;2022-07-24T02:02:38;13.20;99.90
32769;DHT22;23049;54.304;8.826;2022-07-24T02:05:04;13.20;99.90
32769;DHT22;23049;54.304;8.826;2022-07-24T02:07:30;13.20;99.90
32769;DHT22;23049;54.304;8.826;2022-07-24T02:09:56;13.30;99.90
32769;DHT22;23049;54.304;8.826;2022-07-24T02:12:21;13.30;99.90
32769;DHT22;23049;54.304;8.826;2022-07-24T02:14:47;13.40;99.90
32769;DHT22;23049;54.304;8.826;2022-07-24T02:17:13;13.30;99.90
32769;DHT22;23049;54.304;8.826;2022-07-24T02:19:38;13.40;99.90
32769;DHT22;23049;54.304;8.826;2022-07-24T02:22:04;13.30;99.90
32769;DHT22;23049;54.304;8.826;2022-07-24T02:24:30;13.30;99.90
32769;DHT22;23049;54.304;8.826;2022-07-24T02:26:55;13.30;99.90
32769;DHT22;23049;54.304;8.826;2022-07-24T02:29:21;13.40;99.90
32769;DHT22;23049;54.304;8.826;2022-07-24T02:31:46;13.40;99.90
32769;DHT22;23049;54.304;8.826;2022-07-24T02:34:12;13.50;99.90
32769;DHT22;23049;54.304;8.826;2022-07-24T02:36:38;13.60;99.90
32769;DHT22;23049;54.304;8.826;2022-07-24T02:39:03;13.70;99.90
32769;DHT22;23049;54.304;8.826;2022-07-24T02:41:29;13.80;99.90
32769;DHT22;23049;54.304;8.826;2022-07-24T02:43:55;13.70;99.90
32769;DHT22;23049;54.304;8.826;2022-07-24T02:46:20;13.90;99.90
32769;DHT22;23049;54.304;8.826;2022-07-24T02:48:46;13.90;99.90
32769;DHT22;23049;54.304;8.826;2022-07-24T02:51:12;13.90;99.90
32769;DHT22;23049;54.304;8.826;2022-07-24T02:53:38;13.90;99.90
32769;DHT22;23049;54.304;8.826;2022-07-24T02:56:04;13.80;99.90
32769;DHT22;23049;54.304;8.826;2022-07-24T02:58:30;13.80;99.90
32769;DHT22;23049;54.304;8.826;2022-07-24T03:00:56;13.80;99.90
32769;DHT22;23049;54.304;8.826;2022-07-24T03:03:22;13.70;99.90
32769;DHT22;23049;54.304;8.826;2022-07-24T03:05:48;13.70;99.90
32769;DHT22;23049;54.304;8.826;2022-07-24T03:08:13;13.80;99.90
32769;DHT22;23049;54.304;8.826;2022-07-24T03:10:39;13.80;99.90
32769;DHT22;23049;54.304;8.826;2022-07-24T03:13:05;13.70;99.90
32769;DHT22;23049;54.304;8.826;2022-07-24T03:15:31;13.70;99.90
32769;DHT22;23049;54.304;8.826;2022-07-24T03:17:57;13.70;99.90
32769;DHT22;23049;54.304;8.826;2022-07-24T03:20:25;13.70;99.90
32769;DHT22;23049;54.304;8.826;2022-07-24T03:22:51;13.70;99.90
32769;DHT22;23049;54.304;8.826;2022-07-24T03:25:17;13.70;99.90
32769;DHT22;23049;54.304;8.826;2022-07-24T03:27:43;13.70;99.90
32769;DHT22;23049;54.304;8.826;2022-07-24T03:30:09;13.70;99.90
32769;DHT22;23049;54.304;8.826;2022-07-24T03:32:35;13.70;99.90
32769;DHT22;23049;54.304;8.826;2022-07-24T03:35:01;13.80;99.90
32769;DHT22;23049;54.304;8.826;2022-07-24T03:37:27;13.80;99.90
32769;DHT22;23049;54.304;8.826;2022-07-24T03:39:54;13.80;99.90
32769;DHT22;23049;54.304;8.826;2022-07-24T03:42:19;13.90;99.90
32769;DHT22;23049;54.304;8.826;2022-07-24T03:44:45;13.90;99.90
32769;DHT22;23049;54.304;8.826;2022-07-24T03:47:11;13.90;99.90
32769;DHT22;23049;54.304;8.826;2022-07-24T03:49:36;14.00;99.90
32769;DHT22;23049;54.304;8.826;2022-07-24T03:52:02;14.00;99.90
32769;DHT22;23049;54.304;8.826;2022-07-24T03:54:29;14.10;99.90
32769;DHT22;23049;54.304;8.826;2022-07-24T03:56:54;14.20;99.90
32769;DHT22;23049;54.304;8.826;2022-07-24T03:59:20;14.30;99.90
32769;DHT22;23049;54.304;8.826;2022-07-24T04:01:45;14.30;99.90
32769;DHT22;23049;54.304;8.826;2022-07-24T04:04:11;14.40;99.90
32769;DHT22;23049;54.304;8.826;2022-07-24T04:06:37;14.40;99.90
32769;DHT22;23049;54.304;8.826;2022-07-24T04:09:04;14.50;99.90
32769;DHT22;23049;54.304;8.826;2022-07-24T04:11:30;14.70;99.90
32769;DHT22;23049;54.304;8.826;2022-07-24T04:13:56;14.80;99.90
32769;DHT22;23049;54.304;8.826;2022-07-24T04:16:21;14.90;99.90
32769;DHT22;23049;54.304;8.826;2022-07-24T04:18:47;14.90;99.90
32769;DHT22;23049;54.304;8.826;2022-07-24T04:21:13;15.00;99.90
32769;DHT22;23049;54.304;8.826;2022-07-24T04:23:39;15.00;99.90
32769;DHT22;23049;54.304;8.826;2022-07-24T04:26:05;15.00;99.90
32769;DHT22;23049;54.304;8.826;2022-07-24T04:28:31;15.10;99.90
32769;DHT22;23049;54.304;8.826;2022-07-24T04:30:57;15.10;99.90
32769;DHT22;23049;54.304;8.826;2022-07-24T04:33:23;15.10;99.90
32769;DHT22;23049;54.304;8.826;2022-07-24T04:35:48;15.20;99.90
32769;DHT22;23049;54.304;8.826;2022-07-24T04:38:14;15.20;99.90
32769;DHT22;23049;54.304;8.826;2022-07-24T04:40:41;15.20;99.90
32769;DHT22;23049;54.304;8.826;2022-07-24T04:43:07;15.20;99.90
32769;DHT22;23049;54.304;8.826;2022-07-24T04:45:33;15.40;99.90
32769;DHT22;23049;54.304;8.826;2022-07-24T04:47:59;15.50;99.90
32769;DHT22;23049;54.304;8.826;2022-07-24T04:50:24;15.60;99.90
32769;DHT22;23049;54.304;8.826;2022-07-24T04:52:50;15.80;99.90
32769;DHT22;23049;54.304;8.826;2022-07-24T04:55:16;15.90;99.90
32769;DHT22;23049;54.304;8.826;2022-07-24T04:57:43;15.90;99.90
32769;DHT22;23049;54.304;8.826;2022-07-24T05:00:12;16.00;99.90
32769;DHT22;23049;54.304;8.826;2022-07-24T05:02:38;16.00;99.90
32769;DHT22;23049;54.304;8.826;2022-07-24T05:05:04;16.00;99.90
32769;DHT22;23049;54.304;8.826;2022-07-24T05:07:30;16.10;99.90
32769;DHT22;23049;54.304;8.826;2022-07-24T05:09:56;16.10;99.90
32769;DHT22;23049;54.304;8.826;2022-07-24T05:12:23;16.20;99.90
32769;DHT22;23049;54.304;8.826;2022-07-24T05:14:48;16.30;99.90
32769;DHT22;23049;54.304;8.826;2022-07-24T05:17:14;16.60;99.90
32769;DHT22;23049;54.304;8.826;2022-07-24T05:19:40;16.90;99.90
32769;DHT22;23049;54.304;8.826;2022-07-24T05:22:06;17.10;99.90
32769;DHT22;23049;54.304;8.826;2022-07-24T05:24:31;17.40;99.90
32769;DHT22;23049;54.304;8.826;2022-07-24T05:26:57;18.10;99.90
32769;DHT22;23049;54.304;8.826;2022-07-24T05:29:23;18.70;99.90
32769;DHT22;23049;54.304;8.826;2022-07-24T05:31:48;19.60;99.90
32769;DHT22;23049;54.304;8.826;2022-07-24T05:34:14;20.30;99.90
32769;DHT22;23049;54.304;8.826;2022-07-24T05:36:40;20.90;99.90
32769;DHT22;23049;54.304;8.826;2022-07-24T05:39:06;21.40;99.90
32769;DHT22;23049;54.304;8.826;2022-07-24T05:41:32;21.80;99.90
32769;DHT22;23049;54.304;8.826;2022-07-24T05:43:57;21.80;99.90
32769;DHT22;23049;54.304;8.826;2022-07-24T05:46:23;21.90;99.90
32769;DHT22;23049;54.304;8.826;2022-07-24T05:48:49;22.10;99.90
32769;DHT22;23049;54.304;8.826;2022-07-24T05:51:14;22.30;99.90
32769;DHT22;23049;54.304;8.826;2022-07-24T05:53:40;22.50;99.90
32769;DHT22;23049;54.304;8.826;2022-07-24T05:56:06;22.80;99.90
32769;DHT22;23049;54.304;8.826;2022-07-24T05:58:32;23.20;99.90
32769;DHT22;23049;54.304;8.826;2022-07-24T06:00:57;23.40;99.90
32769;DHT22;23049;54.304;8.826;2022-07-24T06:03:23;23.90;99.90
32769;DHT22;23049;54.304;8.826;2022-07-24T06:05:49;24.30;99.90
32769;DHT22;23049;54.304;8.826;2022-07-24T06:08:14;24.50;99.90
32769;DHT22;23049;54.304;8.826;2022-07-24T06:10:40;24.60;99.90
32769;DHT22;23049;54.304;8.826;2022-07-24T06:13:06;24.90;99.90
32769;DHT22;23049;54.304;8.826;2022-07-24T06:18:11;25.30;99.90
32769;DHT22;23049;54.304;8.826;2022-07-24T06:20:36;25.50;99.90
32769;DHT22;23049;54.304;8.826;2022-07-24T06:23:02;25.50;99.90
32769;DHT22;23049;54.304;8.826;2022-07-24T06:25:28;25.50;99.90
32769;DHT22;23049;54.304;8.826;2022-07-24T06:27:53;24.80;99.90
32769;DHT22;23049;54.304;8.826;2022-07-24T06:30:22;23.90;99.90
32769;DHT22;23049;54.304;8.826;2022-07-24T06:32:49;23.20;99.90
32769;DHT22;23049;54.304;8.826;2022-07-24T06:35:15;22.50;99.90
32769;DHT22;23049;54.304;8.826;2022-07-24T06:37:41;22.10;99.90
32769;DHT22;23049;54.304;8.826;2022-07-24T06:40:07;21.70;99.90
32769;DHT22;23049;54.304;8.826;2022-07-24T06:42:33;21.30;99.90
32769;DHT22;23049;54.304;8.826;2022-07-24T06:44:59;21.00;99.90
32769;DHT22;23049;54.304;8.826;2022-07-24T06:47:25;20.80;99.90
32769;DHT22;23049;54.304;8.826;2022-07-24T06:49:52;20.70;99.90
32769;DHT22;23049;54.304;8.826;2022-07-24T06:52:18;20.50;99.90
32769;DHT22;23049;54.304;8.826;2022-07-24T06:54:44;20.30;99.90
32769;DHT22;23049;54.304;8.826;2022-07-24T06:57:10;20.10;99.90
32769;DHT22;23049;54.304;8.826;2022-07-24T06:59:35;20.10;99.90
32769;DHT22;23049;54.304;8.826;2022-07-24T07:02:01;20.10;99.90
32769;DHT22;23049;54.304;8.826;2022-07-24T07:06:59;20.00;99.90
32769;DHT22;23049;54.304;8.826;2022-07-24T07:09:24;20.00;99.90
32769;DHT22;23049;54.304;8.826;2022-07-24T07:11:50;20.10;99.90
32769;DHT22;23049;54.304;8.826;2022-07-24T07:14:16;20.10;99.90
32769;DHT22;23049;54.304;8.826;2022-07-24T07:16:41;20.10;99.90
32769;DHT22;23049;54.304;8.826;2022-07-24T07:19:07;20.20;99.90
32769;DHT22;23049;54.304;8.826;2022-07-24T07:21:33;20.20;99.90
32769;DHT22;23049;54.304;8.826;2022-07-24T07:23:59;20.20;99.90
32769;DHT22;23049;54.304;8.826;2022-07-24T07:28:39;20.50;99.90
32769;DHT22;23049;54.304;8.826;2022-07-24T07:33:37;20.80;99.90
32769;DHT22;23049;54.304;8.826;2022-07-24T07:36:03;20.90;99.90
32769;DHT22;23049;54.304;8.826;2022-07-24T07:38:28;20.90;99.90
32769;DHT22;23049;54.304;8.826;2022-07-24T07:40:54;20.90;99.90
32769;DHT22;23049;54.304;8.826;2022-07-24T07:43:20;21.00;99.90
32769;DHT22;23049;54.304;8.826;2022-07-24T07:45:45;21.00;99.90
32769;DHT22;23049;54.304;8.826;2022-07-24T07:48:11;21.10;99.90
32769;DHT22;23049;54.304;8.826;2022-07-24T07:50:37;21.20;99.90
32769;DHT22;23049;54.304;8.826;2022-07-24T07:53:02;21.30;99.90
32769;DHT22;23049;54.304;8.826;2022-07-24T07:55:28;21.40;99.90
32769;DHT22;23049;54.304;8.826;2022-07-24T07:57:54;21.30;99.90
32769;DHT22;23049;54.304;8.826;2022-07-24T08:02:53;21.40;99.90
32769;DHT22;23049;54.304;8.826;2022-07-24T08:05:19;21.40;99.90
32769;DHT22;23049;54.304;8.826;2022-07-24T08:07:46;21.50;99.90
32769;DHT22;23049;54.304;8.826;2022-07-24T08:10:12;21.50;99.90
32769;DHT22;23049;54.304;8.826;2022-07-24T08:12:49;21.50;99.90
32769;DHT22;23049;54.304;8.826;2022-07-24T08:15:16;21.40;99.90
32769;DHT22;23049;54.304;8.826;2022-07-24T08:17:42;21.40;99.90
32769;DHT22;23049;54.304;8.826;2022-07-24T08:20:09;21.50;99.90
32769;DHT22;23049;54.304;8.826;2022-07-24T08:22:35;21.70;99.90
32769;DHT22;23049;54.304;8.826;2022-07-24T08:25:00;21.70;99.90
32769;DHT22;23049;54.304;8.826;2022-07-24T08:27:26;21.60;99.90
32769;DHT22;23049;54.304;8.826;2022-07-24T08:29:52;21.60;99.90
32769;DHT22;23049;54.304;8.826;2022-07-24T08:32:18;21.80;99.90
32769;DHT22;23049;54.304;8.826;2022-07-24T08:34:44;21.80;99.90
32769;DHT22;23049;54.304;8.826;2022-07-24T08:37:09;21.80;99.90
32769;DHT22;23049;54.304;8.826;2022-07-24T08:39:35;21.90;99.90
32769;DHT22;23049;54.304;8.826;2022-07-24T08:42:00;22.00;99.90
32769;DHT22;23049;54.304;8.826;2022-07-24T08:44:26;22.20;99.90
32769;DHT22;23049;54.304;8.826;2022-07-24T08:46:53;22.40;99.90
32769;DHT22;23049;54.304;8.826;2022-07-24T08:49:21;22.70;99.90
32769;DHT22;23049;54.304;8.826;2022-07-24T08:51:49;22.70;99.90
32769;DHT22;23049;54.304;8.826;2022-07-24T08:54:14;22.70;99.90
32769;DHT22;23049;54.304;8.826;2022-07-24T08:56:41;22.80;99.90
32769;DHT22;23049;54.304;8.826;2022-07-24T08:59:19;22.70;99.90
32769;DHT22;23049;54.304;8.826;2022-07-24T09:06:58;23.00;99.90
32769;DHT22;23049;54.304;8.826;2022-07-24T09:09:24;23.10;99.90
32769;DHT22;23049;54.304;8.826;2022-07-24T09:11:58;23.10;99.90
32769;DHT22;23049;54.304;8.826;2022-07-24T09:14:30;23.20;99.90
32769;DHT22;23049;54.304;8.826;2022-07-24T09:17:29;23.20;99.90
32769;DHT22;23049;54.304;8.826;2022-07-24T09:22:38;23.20;99.90
32769;DHT22;23049;54.304;8.826;2022-07-24T09:27:58;23.30;99.90
32769;DHT22;23049;54.304;8.826;2022-07-24T09:35:57;23.80;99.90
32769;DHT22;23049;54.304;8.826;2022-07-24T09:38:24;23.90;99.90
32769;DHT22;23049;54.304;8.826;2022-07-24T09:43:29;23.90;99.90
32769;DHT22;23049;54.304;8.826;2022-07-24T09:48:34;24.00;99.90
32769;DHT22;23049;54.304;8.826;2022-07-24T09:51:15;24.00;99.90
32769;DHT22;23049;54.304;8.826;2022-07-24T09:53:46;24.10;99.90
32769;DHT22;23049;54.304;8.826;2022-07-24T09:56:16;24.20;99.90
32769;DHT22;23049;54.304;8.826;2022-07-24T10:01:13;24.10;99.90
32769;DHT22;23049;54.304;8.826;2022-07-24T10:03:40;24.20;99.90
32769;DHT22;23049;54.304;8.826;2022-07-24T10:06:15;24.10;99.90
32769;DHT22;23049;54.304;8.826;2022-07-24T10:08:44;24.10;99.90
32769;DHT22;23049;54.304;8.826;2022-07-24T10:11:11;24.20;99.90
32769;DHT22;23049;54.304;8.826;2022-07-24T10:13:38;24.20;99.90
32769;DHT22;23049;54.304;8.826;2022-07-24T10:18:55;24.30;99.90
32769;DHT22;23049;54.304;8.826;2022-07-24T10:26:41;24.30;99.90
32769;DHT22;23049;54.304;8.826;2022-07-24T10:29:11;24.40;99.90
32769;DHT22;23049;54.304;8.826;2022-07-24T10:31:42;24.50;99.90
32769;DHT22;23049;54.304;8.826;2022-07-24T10:42:25;25.10;99.90
32769;DHT22;23049;54.304;8.826;2022-07-24T10:47:39;25.20;99.90
32769;DHT22;23049;54.304;8.826;2022-07-24T10:50:04;25.10;99.90
32769;DHT22;23049;54.304;8.826;2022-07-24T10:52:32;25.10;99.90
32769;DHT22;23049;54.304;8.826;2022-07-24T10:55:33;25.20;99.90
32769;DHT22;23049;54.304;8.826;2022-07-24T10:58:03;25.40;99.90
32769;DHT22;23049;54.304;8.826;2022-07-24T11:02:57;25.20;99.90
32769;DHT22;23049;54.304;8.826;2022-07-24T11:05:31;25.10;99.90
32769;DHT22;23049;54.304;8.826;2022-07-24T11:10:54;25.20;99.90
32769;DHT22;23049;54.304;8.826;2022-07-24T11:21:31;25.40;99.90
32769;DHT22;23049;54.304;8.826;2022-07-24T11:31:37;25.70;99.90
32769;DHT22;23049;54.304;8.826;2022-07-24T11:34:04;25.70;99.90
32769;DHT22;23049;54.304;8.826;2022-07-24T11:36:29;25.70;99.90
32769;DHT22;23049;54.304;8.826;2022-07-24T11:38:56;25.90;99.90
32769;DHT22;23049;54.304;8.826;2022-07-24T11:41:22;26.00;99.90
32769;DHT22;23049;54.304;8.826;2022-07-24T11:43:54;25.80;99.90
32769;DHT22;23049;54.304;8.826;2022-07-24T11:46:34;25.50;99.90
32769;DHT22;23049;54.304;8.826;2022-07-24T11:49:03;25.30;99.90
32769;DHT22;23049;54.304;8.826;2022-07-24T11:51:29;24.90;99.90
32769;DHT22;23049;54.304;8.826;2022-07-24T11:53:56;24.80;99.90
32769;DHT22;23049;54.304;8.826;2022-07-24T11:56:22;24.70;99.90
32769;DHT22;23049;54.304;8.826;2022-07-24T11:58:48;24.60;99.90
32769;DHT22;23049;54.304;8.826;2022-07-24T12:01:21;24.50;99.90
32769;DHT22;23049;54.304;8.826;2022-07-24T12:03:51;24.50;99.90
32769;DHT22;23049;54.304;8.826;2022-07-24T12:06:19;24.50;99.90
32769;DHT22;23049;54.304;8.826;2022-07-24T12:08:45;24.60;99.90
32769;DHT22;23049;54.304;8.826;2022-07-24T12:11:11;24.70;99.90
32769;DHT22;23049;54.304;8.826;2022-07-24T12:13:41;24.80;99.90
32769;DHT22;23049;54.304;8.826;2022-07-24T12:16:07;24.80;99.90
32769;DHT22;23049;54.304;8.826;2022-07-24T12:18:33;24.80;99.90
32769;DHT22;23049;54.304;8.826;2022-07-24T12:21:03;24.90;99.90
32769;DHT22;23049;54.304;8.826;2022-07-24T12:23:29;25.00;99.90
32769;DHT22;23049;54.304;8.826;2022-07-24T12:25:55;25.20;99.90
32769;DHT22;23049;54.304;8.826;2022-07-24T12:28:20;25.30;99.90
32769;DHT22;23049;54.304;8.826;2022-07-24T12:30:51;25.10;99.90
32769;DHT22;23049;54.304;8.826;2022-07-24T12:36:06;24.90;99.90
32769;DHT22;23049;54.304;8.826;2022-07-24T12:45:41;25.20;99.90
32769;DHT22;23049;54.304;8.826;2022-07-24T12:53:26;25.40;99.90
32769;DHT22;23049;54.304;8.826;2022-07-24T12:58:26;25.10;99.90
32769;DHT22;23049;54.304;8.826;2022-07-24T13:00:58;25.10;99.90
32769;DHT22;23049;54.304;8.826;2022-07-24T13:03:25;25.00;99.90
32769;DHT22;23049;54.304;8.826;2022-07-24T13:05:54;25.10;99.90
32769;DHT22;23049;54.304;8.826;2022-07-24T13:08:20;25.10;99.90
32769;DHT22;23049;54.304;8.826;2022-07-24T13:10:46;25.30;99.90
32769;DHT22;23049;54.304;8.826;2022-07-24T13:13:11;25.20;99.90
32769;DHT22;23049;54.304;8.826;2022-07-24T13:15:37;25.30;99.90
32769;DHT22;23049;54.304;8.826;2022-07-24T13:18:04;25.30;99.90
32769;DHT22;23049;54.304;8.826;2022-07-24T13:20:31;25.30;99.90
32769;DHT22;23049;54.304;8.826;2022-07-24T13:22:57;25.30;99.90
32769;DHT22;23049;54.304;8.826;2022-07-24T13:25:23;25.30;99.90
32769;DHT22;23049;54.304;8.826;2022-07-24T13:27:49;25.30;99.90
32769;DHT22;23049;54.304;8.826;2022-07-24T13:30:15;25.10;99.90
32769;DHT22;23049;54.304;8.826;2022-07-24T13:32:40;25.10;99.90
32769;DHT22;23049;54.304;8.826;2022-07-24T13:35:06;25.20;99.90
32769;DHT22;23049;54.304;8.826;2022-07-24T13:37:32;25.20;99.90
32769;DHT22;23049;54.304;8.826;2022-07-24T13:39:58;25.30;99.90
32769;DHT22;23049;54.304;8.826;2022-07-24T13:42:23;25.50;99.90
32769;DHT22;23049;54.304;8.826;2022-07-24T13:44:49;25.60;99.90
32769;DHT22;23049;54.304;8.826;2022-07-24T13:47:15;25.80;99.90
32769;DHT22;23049;54.304;8.826;2022-07-24T13:49:40;25.80;99.90
32769;DHT22;23049;54.304;8.826;2022-07-24T13:52:06;25.90;99.90
32769;DHT22;23049;54.304;8.826;2022-07-24T13:54:32;25.80;99.90
32769;DHT22;23049;54.304;8.826;2022-07-24T13:56:57;25.80;99.90
32769;DHT22;23049;54.304;8.826;2022-07-24T13:59:23;25.70;99.90
32769;DHT22;23049;54.304;8.826;2022-07-24T14:01:49;25.60;99.90
32769;DHT22;23049;54.304;8.826;2022-07-24T14:04:14;25.60;99.90
32769;DHT22;23049;54.304;8.826;2022-07-24T14:06:40;25.80;99.90
32769;DHT22;23049;54.304;8.826;2022-07-24T14:09:06;26.00;99.90
32769;DHT22;23049;54.304;8.826;2022-07-24T14:11:33;26.20;99.90
32769;DHT22;23049;54.304;8.826;2022-07-24T14:13:59;26.30;99.90
32769;DHT22;23049;54.304;8.826;2022-07-24T14:16:25;26.30;99.90
32769;DHT22;23049;54.304;8.826;2022-07-24T14:18:50;26.40;99.90
32769;DHT22;23049;54.304;8.826;2022-07-24T14:21:16;26.50;99.90
32769;DHT22;23049;54.304;8.826;2022-07-24T14:23:42;26.60;99.90
32769;DHT22;23049;54.304;8.826;2022-07-24T14:26:07;26.60;99.90
32769;DHT22;23049;54.304;8.826;2022-07-24T14:28:33;26.30;99.90
32769;DHT22;23049;54.304;8.826;2022-07-24T14:30:59;26.20;99.90
32769;DHT22;23049;54.304;8.826;2022-07-24T14:33:25;26.30;99.90
32769;DHT22;23049;54.304;8.826;2022-07-24T14:35:50;26.30;99.90
32769;DHT22;23049;54.304;8.826;2022-07-24T14:38:16;26.20;99.90
32769;DHT22;23049;54.304;8.826;2022-07-24T14:40:44;26.10;99.90
32769;DHT22;23049;54.304;8.826;2022-07-24T14:43:09;26.00;99.90
32769;DHT22;23049;54.304;8.826;2022-07-24T14:45:36;25.90;99.90
32769;DHT22;23049;54.304;8.826;2022-07-24T14:48:02;26.00;99.90
32769;DHT22;23049;54.304;8.826;2022-07-24T14:50:28;26.10;99.90
32769;DHT22;23049;54.304;8.826;2022-07-24T14:52:53;26.10;99.90
32769;DHT22;23049;54.304;8.826;2022-07-24T14:55:19;26.00;99.90
32769;DHT22;23049;54.304;8.826;2022-07-24T14:57:47;25.80;99.90
32769;DHT22;23049;54.304;8.826;2022-07-24T15:00:12;25.60;99.90
32769;DHT22;23049;54.304;8.826;2022-07-24T15:02:40;25.40;99.90
32769;DHT22;23049;54.304;8.826;2022-07-24T15:05:07;25.20;99.90
32769;DHT22;23049;54.304;8.826;2022-07-24T15:07:33;25.30;99.90
32769;DHT22;23049;54.304;8.826;2022-07-24T15:10:01;25.40;99.90
32769;DHT22;23049;54.304;8.826;2022-07-24T15:12:27;25.30;99.90
32769;DHT22;23049;54.304;8.826;2022-07-24T15:15:04;25.30;99.90
32769;DHT22;23049;54.304;8.826;2022-07-24T15:17:30;25.30;99.90
32769;DHT22;23049;54.304;8.826;2022-07-24T15:19:56;25.20;99.90
32769;DHT22;23049;54.304;8.826;2022-07-24T15:22:22;25.30;99.90
32769;DHT22;23049;54.304;8.826;2022-07-24T15:24:48;25.30;99.90
32769;DHT22;23049;54.304;8.826;2022-07-24T15:27:15;25.40;99.90
32769;DHT22;23049;54.304;8.826;2022-07-24T15:29:41;25.40;99.90
32769;DHT22;23049;54.304;8.826;2022-07-24T15:32:07;25.40;99.90
32769;DHT22;23049;54.304;8.826;2022-07-24T15:34:33;25.40;99.90
32769;DHT22;23049;54.304;8.826;2022-07-24T15:37:00;25.40;99.90
32769;DHT22;23049;54.304;8.826;2022-07-24T15:39:28;25.50;99.90
32769;DHT22;23049;54.304;8.826;2022-07-24T15:41:55;25.50;99.90
32769;DHT22;23049;54.304;8.826;2022-07-24T15:44:21;25.50;99.90
32769;DHT22;23049;54.304;8.826;2022-07-24T15:46:47;25.50;99.90
32769;DHT22;23049;54.304;8.826;2022-07-24T15:49:12;25.40;99.90
32769;DHT22;23049;54.304;8.826;2022-07-24T15:51:38;25.40;99.90
32769;DHT22;23049;54.304;8.826;2022-07-24T15:54:05;25.50;99.90
32769;DHT22;23049;54.304;8.826;2022-07-24T15:56:30;25.30;99.90
32769;DHT22;23049;54.304;8.826;2022-07-24T15:58:56;25.40;99.90
32769;DHT22;23049;54.304;8.826;2022-07-24T16:01:22;25.40;99.90
32769;DHT22;23049;54.304;8.826;2022-07-24T16:03:48;25.40;99.90
32769;DHT22;23049;54.304;8.826;2022-07-24T16:06:13;25.40;99.90
32769;DHT22;23049;54.304;8.826;2022-07-24T16:08:39;25.40;99.90
32769;DHT22;23049;54.304;8.826;2022-07-24T16:11:05;25.50;99.90
32769;DHT22;23049;54.304;8.826;2022-07-24T16:13:30;25.50;99.90
32769;DHT22;23049;54.304;8.826;2022-07-24T16:15:56;25.50;99.90
32769;DHT22;23049;54.304;8.826;2022-07-24T16:18:21;25.50;99.90
32769;DHT22;23049;54.304;8.826;2022-07-24T16:20:47;25.40;99.90
32769;DHT22;23049;54.304;8.826;2022-07-24T16:23:13;25.30;99.90
32769;DHT22;23049;54.304;8.826;2022-07-24T16:25:39;25.20;99.90
32769;DHT22;23049;54.304;8.826;2022-07-24T16:28:04;25.20;99.90
32769;DHT22;23049;54.304;8.826;2022-07-24T16:30:30;25.00;99.90
32769;DHT22;23049;54.304;8.826;2022-07-24T16:32:55;24.80;99.90
32769;DHT22;23049;54.304;8.826;2022-07-24T16:35:21;24.80;99.90
32769;DHT22;23049;54.304;8.826;2022-07-24T16:37:47;24.90;99.90
32769;DHT22;23049;54.304;8.826;2022-07-24T16:40:12;24.90;99.90
32769;DHT22;23049;54.304;8.826;2022-07-24T16:42:38;24.90;99.90
32769;DHT22;23049;54.304;8.826;2022-07-24T16:45:04;24.80;99.90
32769;DHT22;23049;54.304;8.826;2022-07-24T16:47:30;24.80;99.90
32769;DHT22;23049;54.304;8.826;2022-07-24T16:49:56;24.80;99.90
32769;DHT22;23049;54.304;8.826;2022-07-24T16:52:21;24.60;99.90
32769;DHT22;23049;54.304;8.826;2022-07-24T16:54:47;24.60;99.90
32769;DHT22;23049;54.304;8.826;2022-07-24T16:57:12;24.50;99.90
32769;DHT22;23049;54.304;8.826;2022-07-24T16:59:38;24.40;99.90
32769;DHT22;23049;54.304;8.826;2022-07-24T17:02:04;24.40;99.90